Time;durP1;ratioP1;P1;durP2;ratioP2;P2;SDS_P1;SDS_P2;PMS_P1;PMS_P2;Temp;Humidity;BMP_temperature;BMP_pressure;BME280_temperature;BME280_humidity;BME280_pressure;Samples;Min_cycle;Max_cycle;Signal;HPM_P1;HPM_P2
2023/05/29 00:00:21;;;;;;;14.75;6.80;;;;;;;15.58;100.00;97504.53;5050146;28;20127;-77
2023/05/29 00:02:50;;;;;;;11.18;6.05;;;;;;;15.58;100.00;97502.69;5057112;28;20041;-77
2023/05/29 00:05:16;;;;;;;16.85;6.38;;;;;;;15.58;100.00;97505.41;5067683;28;20471;-77
2023/05/29 00:07:42;;;;;;;10.50;6.78;;;;;;;15.63;100.00;97492.38;5069779;28;20078;-77
2023/05/29 00:10:09;;;;;;;10.55;6.57;;;;;;;15.59;100.00;97490.94;5052929;28;20491;-77
2023/05/29 00:12:35;;;;;;;12.13;6.57;;;;;;;15.59;100.00;97496.34;5052617;28;20029;-76
2023/05/29 00:15:01;;;;;;;13.98;6.70;;;;;;;15.57;100.00;97489.31;5047109;28;20121;-76
2023/05/29 00:17:26;;;;;;;11.18;6.35;;;;;;;15.65;100.00;97498.53;5049222;28;20031;-77
2023/05/29 00:19:52;;;;;;;11.65;6.32;;;;;;;15.66;100.00;97492.13;5049446;28;20505;-77
2023/05/29 00:22:17;;;;;;;13.13;6.78;;;;;;;15.67;100.00;97485.75;5049660;28;20029;-77
2023/05/29 00:24:43;;;;;;;18.27;6.60;;;;;;;15.70;100.00;97481.94;5050787;28;20108;-77
2023/05/29 00:27:09;;;;;;;12.93;6.93;;;;;;;15.59;100.00;97479.28;5049577;28;20430;-77
2023/05/29 00:29:37;;;;;;;12.88;6.53;;;;;;;15.48;100.00;97469.38;5050700;28;20054;-77
2023/05/29 00:32:04;;;;;;;14.05;6.97;;;;;;;15.52;100.00;97484.34;5032960;28;20465;-77
2023/05/29 00:34:29;;;;;;;11.90;7.32;;;;;;;15.62;100.00;97489.81;5051929;28;20052;-76
2023/05/29 00:36:55;;;;;;;9.73;6.88;;;;;;;15.62;100.00;97484.44;5053369;28;20056;-76
2023/05/29 00:39:21;;;;;;;10.82;6.60;;;;;;;15.62;100.00;97482.59;5053497;28;20029;-77
2023/05/29 00:41:50;;;;;;;15.32;6.85;;;;;;;15.60;100.00;97483.69;5053395;28;20025;-77
2023/05/29 00:44:19;;;;;;;14.18;6.97;;;;;;;15.60;100.00;97481.84;5068877;28;20062;-77
2023/05/29 00:46:46;;;;;;;17.50;7.07;;;;;;;15.58;100.00;97483.81;5072989;28;20120;-78
2023/05/29 00:49:12;;;;;;;13.27;7.07;;;;;;;15.67;100.00;97491.16;5050316;28;20025;-77
2023/05/29 00:51:38;;;;;;;19.73;7.15;;;;;;;15.67;100.00;97480.34;5061258;28;20024;-78
2023/05/29 00:54:07;;;;;;;10.90;7.10;;;;;;;15.66;100.00;97485.88;5040296;28;20443;-77
2023/05/29 00:56:34;;;;;;;14.75;7.18;;;;;;;15.67;100.00;97488.44;5056297;28;20177;-77
2023/05/29 00:59:00;;;;;;;12.18;7.13;;;;;;;15.71;100.00;97484.53;5047964;28;20029;-76
2023/05/29 01:01:26;;;;;;;13.60;7.82;;;;;;;15.61;100.00;97493.50;5056019;28;20089;-76
2023/05/29 01:03:55;;;;;;;15.65;7.85;;;;;;;15.62;100.00;97487.13;5062622;28;20116;-76
2023/05/29 01:06:21;;;;;;;14.10;7.13;;;;;;;15.64;100.00;97493.25;5041822;28;20040;-76
2023/05/29 01:08:46;;;;;;;18.88;7.65;;;;;;;15.61;100.00;97483.56;5055801;28;20024;-76
2023/05/29 01:11:21;;;;;;;12.90;7.40;;;;;;;15.55;100.00;97484.09;5060150;28;20536;-76
2023/05/29 01:13:49;;;;;;;23.17;7.93;;;;;;;15.55;100.00;97489.47;5063983;28;20036;-76
2023/05/29 01:16:21;;;;;;;20.05;7.68;;;;;;;15.56;100.00;97485.81;5056029;28;20070;-76
2023/05/29 01:19:05;;;;;;;15.77;6.85;;;;;;;15.52;100.00;97484.34;5045495;28;20464;-76
2023/05/29 01:21:56;;;;;;;16.08;7.90;;;;;;;15.46;100.00;97482.13;5052869;28;20040;-76
2023/05/29 01:24:52;;;;;;;14.48;7.47;;;;;;;15.53;100.00;97485.19;5056426;28;20048;-76
2023/05/29 01:27:19;;;;;;;12.77;7.47;;;;;;;15.52;100.00;97487.03;5047013;28;20040;-76
2023/05/29 01:29:46;;;;;;;23.17;7.13;;;;;;;15.52;100.00;97481.63;5053517;28;20476;-76
2023/05/29 01:32:12;;;;;;;13.38;7.28;;;;;;;15.40;100.00;97471.84;5072420;28;20057;-76
2023/05/29 01:34:37;;;;;;;19.10;7.55;;;;;;;15.38;100.00;97476.47;5055145;28;20061;-76
2023/05/29 01:37:03;;;;;;;14.15;7.28;;;;;;;15.47;100.00;97489.22;5055605;28;20036;-76
2023/05/29 01:39:29;;;;;;;13.68;7.15;;;;;;;15.48;100.00;97482.00;5058046;28;20562;-76
2023/05/29 01:41:55;;;;;;;15.32;7.70;;;;;;;15.51;100.00;97479.91;5035204;28;20095;-76
2023/05/29 01:44:21;;;;;;;14.35;7.22;;;;;;;15.48;100.00;97476.59;5041015;28;20024;-77
2023/05/29 01:46:47;;;;;;;15.55;7.53;;;;;;;15.46;100.00;97471.31;5046366;28;20033;-78
2023/05/29 01:49:13;;;;;;;13.30;7.68;;;;;;;15.43;100.00;97468.03;5055197;28;20024;-77
2023/05/29 01:51:42;;;;;;;17.42;7.18;;;;;;;15.46;100.00;97473.16;5047121;28;20060;-77
2023/05/29 01:54:08;;;;;;;14.80;7.15;;;;;;;15.46;100.00;97468.63;5051835;28;20497;-77
2023/05/29 01:56:35;;;;;;;15.85;7.25;;;;;;;15.47;100.00;97467.66;5053429;28;20040;-77
2023/05/29 01:59:02;;;;;;;12.75;7.60;;;;;;;15.51;100.00;97463.75;5035167;28;20496;-77
2023/05/29 02:01:27;;;;;;;16.88;8.10;;;;;;;15.54;100.00;97463.47;5058224;28;20034;-77
2023/05/29 02:03:53;;;;;;;17.38;7.85;;;;;;;15.54;100.00;97462.63;5054902;28;20035;-76
2023/05/29 02:06:19;;;;;;;12.40;7.35;;;;;;;15.54;100.00;97463.47;5050060;28;20048;-76
2023/05/29 02:08:44;;;;;;;12.60;7.90;;;;;;;15.52;100.00;97467.28;5034761;28;20491;-76
2023/05/29 02:11:10;;;;;;;13.40;7.38;;;;;;;15.48;100.00;97466.69;5051481;28;20436;-76
2023/05/29 02:13:35;;;;;;;22.05;8.63;;;;;;;15.52;100.00;97470.00;5051664;28;20122;-75
2023/05/29 02:16:01;;;;;;;16.83;8.38;;;;;;;15.46;100.00;97468.63;5061790;28;20484;-76
2023/05/29 02:18:26;;;;;;;24.35;8.88;;;;;;;15.46;100.00;97479.41;5067340;28;20028;-77
2023/05/29 02:20:52;;;;;;;12.32;8.02;;;;;;;15.48;100.00;97472.09;5068969;28;20112;-77
2023/05/29 02:23:19;;;;;;;13.18;8.43;;;;;;;15.52;100.00;97461.91;5043726;28;20400;-76
2023/05/29 02:25:45;;;;;;;14.25;8.43;;;;;;;15.56;100.00;97466.94;5066211;28;20031;-77
2023/05/29 02:28:10;;;;;;;15.43;7.85;;;;;;;15.53;100.00;97461.78;5054381;28;20024;-77
2023/05/29 02:30:36;;;;;;;12.60;7.72;;;;;;;15.55;100.00;97461.66;5065847;28;20378;-77
2023/05/29 02:33:01;;;;;;;13.52;7.78;;;;;;;15.56;100.00;97458.84;5041072;28;20043;-77
2023/05/29 02:35:27;;;;;;;13.90;8.98;;;;;;;15.64;100.00;97467.13;5051429;28;20555;-77
2023/05/29 02:37:52;;;;;;;17.45;8.43;;;;;;;15.63;100.00;97456.47;5051224;28;20116;-77
2023/05/29 02:40:19;;;;;;;14.07;8.35;;;;;;;15.64;100.00;97450.09;5053388;28;20036;-76
2023/05/29 02:42:45;;;;;;;16.48;8.52;;;;;;;15.68;100.00;97460.50;5046976;28;20025;-76
2023/05/29 02:45:10;;;;;;;13.00;8.63;;;;;;;15.64;100.00;97450.94;5051838;28;20518;-76
2023/05/29 02:47:36;;;;;;;20.90;9.07;;;;;;;15.66;100.00;97465.16;5056571;28;20036;-76
2023/05/29 02:50:02;;;;;;;14.07;8.38;;;;;;;15.66;100.00;97448.97;5034124;28;20039;-76
2023/05/29 02:52:30;;;;;;;13.77;7.80;;;;;;;15.69;100.00;97459.50;5039188;28;20437;-76
2023/05/29 02:54:56;;;;;;;14.02;7.85;;;;;;;15.67;100.00;97457.94;5070701;28;20028;-76
2023/05/29 02:57:22;;;;;;;13.40;8.13;;;;;;;15.63;100.00;97449.22;5070478;28;20135;-76
2023/05/29 02:59:48;;;;;;;15.68;8.75;;;;;;;15.66;100.00;97451.66;5070680;28;20017;-76
2023/05/29 03:02:14;;;;;;;15.05;8.95;;;;;;;15.75;100.00;97454.59;5069341;28;20017;-76
2023/05/29 03:04:40;;;;;;;15.30;9.32;;;;;;;15.77;100.00;97450.78;5050754;28;20454;-76
2023/05/29 03:07:06;;;;;;;22.67;9.10;;;;;;;15.75;100.00;97446.50;5050605;28;20039;-76
2023/05/29 03:09:32;;;;;;;15.90;8.75;;;;;;;15.79;100.00;97442.53;5045831;28;20166;-76
2023/05/29 03:11:57;;;;;;;21.63;8.50;;;;;;;15.71;100.00;97440.50;5038790;28;20112;-77
2023/05/29 03:14:23;;;;;;;13.75;7.75;;;;;;;15.73;100.00;97442.09;5066946;28;20033;-77
2023/05/29 03:16:49;;;;;;;14.88;8.05;;;;;;;15.74;100.00;97442.94;5056052;28;20448;-76
2023/05/29 03:19:15;;;;;;;16.88;9.35;;;;;;;15.66;100.00;97443.56;5070234;28;20400;-77
2023/05/29 03:21:40;;;;;;;22.27;9.35;;;;;;;15.66;100.00;97448.97;5071660;28;20025;-77
2023/05/29 03:24:06;;;;;;;19.35;9.02;;;;;;;15.65;100.00;97463.47;5045911;28;20193;-76
2023/05/29 03:26:31;;;;;;;16.63;8.27;;;;;;;15.64;100.00;97466.28;5054243;28;20056;-77
2023/05/29 03:28:57;;;;;;;14.05;8.40;;;;;;;15.61;100.00;97470.09;5070545;28;20032;-77
2023/05/29 03:31:22;;;;;;;15.85;8.30;;;;;;;15.67;100.00;97476.81;5052674;28;20146;-77
2023/05/29 03:33:49;;;;;;;15.85;8.82;;;;;;;15.69;100.00;97477.53;5051507;28;20029;-83
2023/05/29 03:36:16;;;;;;;18.80;9.23;;;;;;;15.65;100.00;97466.16;5067256;28;20103;-80
2023/05/29 03:38:43;;;;;;;10.40;6.97;;;;;;;15.69;100.00;97475.69;5070412;28;20131;-78
2023/05/29 03:41:09;;;;;;;17.25;7.75;;;;;;;15.73;100.00;97479.84;5053477;28;20103;-82
2023/05/29 03:43:36;;;;;;;21.30;8.93;;;;;;;15.79;100.00;97485.69;5034110;28;20576;-84
2023/05/29 03:46:01;;;;;;;16.40;8.13;;;;;;;15.74;100.00;97488.81;5050352;28;20099;-85
2023/05/29 03:48:27;;;;;;;17.70;9.38;;;;;;;15.78;100.00;97486.72;5033381;28;20116;-83
2023/05/29 03:50:53;;;;;;;18.98;8.95;;;;;;;15.79;100.00;97481.16;5033640;28;20488;-83
2023/05/29 03:53:18;;;;;;;15.02;8.77;;;;;;;15.70;100.00;97477.41;5058256;28;20044;-82
2023/05/29 03:55:44;;;;;;;14.80;8.52;;;;;;;15.75;100.00;97484.25;5045486;28;20029;-83
2023/05/29 03:58:12;;;;;;;20.95;11.25;;;;;;;15.77;100.00;97483.16;5053276;28;20120;-84
2023/05/29 04:00:37;;;;;;;15.02;9.10;;;;;;;15.70;100.00;97484.63;5070549;28;20067;-84
2023/05/29 04:03:03;;;;;;;25.65;12.40;;;;;;;15.70;100.00;97474.72;5070057;28;20025;-83
2023/05/29 04:05:29;;;;;;;24.58;12.77;;;;;;;15.78;100.00;97484.00;5046428;28;20040;-83
2023/05/29 04:07:55;;;;;;;15.55;9.27;;;;;;;15.85;100.00;97494.13;5032304;28;20099;-82
2023/05/29 04:10:21;;;;;;;32.35;14.55;;;;;;;15.87;100.00;97494.03;5037356;28;20032;-84
2023/05/29 04:12:46;;;;;;;18.40;10.45;;;;;;;15.92;100.00;97492.66;5033266;28;20118;-82
2023/05/29 04:15:12;;;;;;;15.25;9.45;;;;;;;15.93;100.00;97488.97;5062458;28;20036;-85
2023/05/29 04:17:37;;;;;;;17.15;9.70;;;;;;;15.99;100.00;97493.00;5056935;28;20552;-84
2023/05/29 04:20:08;;;;;;;15.27;9.75;;;;;;;15.95;100.00;97491.53;5054613;28;20484;-85
2023/05/29 04:22:37;;;;;;;13.63;8.30;;;;;;;15.99;100.00;97490.28;5049804;28;20530;-80
2023/05/29 04:25:04;;;;;;;18.77;8.30;;;;;;;15.98;100.00;97494.81;5052262;28;20503;-80
2023/05/29 04:27:31;;;;;;;15.13;8.77;;;;;;;15.99;100.00;97487.59;5063158;28;20045;-79
2023/05/29 04:29:57;;;;;;;23.00;8.70;;;;;;;16.02;100.00;97482.78;5045363;28;20117;-79
2023/05/29 04:32:23;;;;;;;14.02;8.80;;;;;;;16.11;100.00;97482.00;5054580;28;20408;-77
2023/05/29 04:34:49;;;;;;;15.93;9.27;;;;;;;16.13;100.00;97485.44;5052490;28;20025;-78
2023/05/29 04:37:15;;;;;;;18.45;9.23;;;;;;;16.13;100.00;97479.16;5062025;28;20174;-79
2023/05/29 04:39:40;;;;;;;15.73;8.63;;;;;;;16.08;100.00;97471.47;5053735;28;20420;-79
2023/05/29 04:42:06;;;;;;;15.48;8.88;;;;;;;16.15;100.00;97483.44;5061765;28;20120;-80
2023/05/29 04:44:32;;;;;;;18.58;9.48;;;;;;;16.15;100.00;97482.63;5047393;28;20568;-80
2023/05/29 04:46:58;;;;;;;13.80;8.85;;;;;;;16.18;100.00;97476.94;5069557;28;20025;-80
2023/05/29 04:49:24;;;;;;;19.23;10.15;;;;;;;16.21;100.00;97477.53;5039936;28;20073;-81
2023/05/29 04:51:52;;;;;;;17.17;10.75;;;;;;;16.28;100.00;97489.50;5041205;28;20522;-80
2023/05/29 04:54:19;;;;;;;22.48;10.35;;;;;;;16.29;100.00;97487.66;5065936;28;20028;-81
2023/05/29 04:56:45;;;;;;;18.65;10.43;;;;;;;16.25;100.00;97486.22;5041209;28;20021;-81
2023/05/29 04:59:12;;;;;;;16.10;9.05;;;;;;;16.23;100.00;97488.19;5035868;28;20496;-81
2023/05/29 05:01:37;;;;;;;17.58;8.73;;;;;;;16.35;100.00;97497.94;5038532;28;20401;-81
2023/05/29 05:04:03;;;;;;;47.97;29.25;;;;;;;16.47;100.00;97498.72;5050411;28;20021;-81
2023/05/29 05:06:29;;;;;;;28.38;14.35;;;;;;;16.50;100.00;97491.22;5059327;28;20040;-80
2023/05/29 05:08:55;;;;;;;19.20;11.13;;;;;;;16.59;100.00;97498.56;5037202;28;20024;-80
2023/05/29 05:11:22;;;;;;;18.38;8.85;;;;;;;16.47;100.00;97491.47;5053625;28;20322;-81
2023/05/29 05:13:47;;;;;;;18.98;9.05;;;;;;;16.52;100.00;97483.00;5053353;28;20500;-81
2023/05/29 05:16:13;;;;;;;22.00;9.32;;;;;;;16.66;100.00;97490.78;5056316;28;20047;-82
2023/05/29 05:18:39;;;;;;;18.73;8.77;;;;;;;16.94;100.00;97497.31;5043170;28;20063;-81
2023/05/29 05:21:05;;;;;;;23.13;8.60;;;;;;;17.09;100.00;97485.13;5049878;28;20033;-81
2023/05/29 05:23:31;;;;;;;12.50;7.45;;;;;;;17.16;100.00;97478.22;5047886;28;20021;-78
2023/05/29 05:25:56;;;;;;;16.88;7.38;;;;;;;17.33;100.00;97483.78;5048831;28;20024;-79
2023/05/29 05:28:22;;;;;;;14.38;7.30;;;;;;;17.58;100.00;97476.19;5070119;28;20032;-81
2023/05/29 05:30:47;;;;;;;9.68;6.55;;;;;;;17.72;100.00;97467.66;5036549;28;20045;-82
2023/05/29 05:33:13;;;;;;;12.48;6.30;;;;;;;17.73;100.00;97453.13;5056694;28;20401;-80
2023/05/29 05:35:39;;;;;;;10.55;6.55;;;;;;;17.90;100.00;97449.75;5035982;28;20084;-81
2023/05/29 05:38:04;;;;;;;10.00;6.70;;;;;;;17.86;100.00;97451.88;5052246;28;20025;-80
2023/05/29 05:40:30;;;;;;;10.65;6.30;;;;;;;17.84;100.00;97448.44;5048045;28;20032;-80
2023/05/29 05:42:56;;;;;;;10.57;6.03;;;;;;;17.45;100.00;97425.03;5035714;28;20485;-81
2023/05/29 05:45:21;;;;;;;10.73;7.07;;;;;;;17.43;100.00;97445.97;5060432;28;20472;-81
2023/05/29 05:47:47;;;;;;;8.18;6.35;;;;;;;17.28;100.00;97453.63;5040877;28;20090;-80
2023/05/29 05:50:12;;;;;;;10.30;6.13;;;;;;;17.19;100.00;97459.00;5070465;28;20396;-81
2023/05/29 05:52:38;;;;;;;12.82;7.53;;;;;;;16.97;100.00;97464.63;5072424;28;20025;-81
2023/05/29 05:55:04;;;;;;;12.52;7.05;;;;;;;17.06;100.00;97455.69;5064525;28;20397;-81
2023/05/29 05:57:32;;;;;;;15.73;7.22;;;;;;;17.21;100.00;97468.69;5055570;28;20064;-81
2023/05/29 05:59:58;;;;;;;12.18;6.80;;;;;;;17.19;100.00;97449.06;5055501;28;20024;-81
2023/05/29 06:02:24;;;;;;;9.80;6.40;;;;;;;17.27;100.00;97451.03;5072034;28;20107;-81
2023/05/29 06:04:49;;;;;;;12.68;8.50;;;;;;;17.57;100.00;97442.88;5054464;28;20060;-80
2023/05/29 06:07:15;;;;;;;26.73;13.70;;;;;;;17.99;100.00;97429.09;5061456;28;20020;-81
2023/05/29 06:09:41;;;;;;;30.13;15.65;;;;;;;18.25;100.00;97424.75;5054915;28;20109;-81
2023/05/29 06:12:08;;;;;;;12.30;6.28;;;;;;;18.79;100.00;97407.81;5044295;28;20090;-80
2023/05/29 06:14:34;;;;;;;67.93;43.13;;;;;;;19.21;100.00;97398.16;5072187;28;20028;-80
2023/05/29 06:17:00;;;;;;;10.10;5.90;;;;;;;19.32;100.00;97395.22;5065231;28;20117;-81
2023/05/29 06:19:25;;;;;;;52.45;30.70;;;;;;;19.54;100.00;97403.97;5052695;28;20116;-80
2023/05/29 06:21:51;;;;;;;6.13;4.97;;;;;;;19.78;100.00;97401.50;5041118;28;20460;-81
2023/05/29 06:24:16;;;;;;;11.38;5.60;;;;;;;19.86;100.00;97390.72;5051714;28;20028;-82
2023/05/29 06:26:42;;;;;;;7.05;5.18;;;;;;;19.84;100.00;97393.56;5046828;28;20032;-80
2023/05/29 06:29:07;;;;;;;11.38;5.07;;;;;;;19.87;100.00;97392.44;5068902;28;20016;-80
2023/05/29 06:31:33;;;;;;;9.65;5.93;;;;;;;20.10;100.00;97390.91;5059917;28;20053;-80
2023/05/29 06:33:59;;;;;;;8.88;4.47;;;;;;;20.24;100.00;97378.63;5068918;28;20029;-81
2023/05/29 06:36:25;;;;;;;22.27;12.55;;;;;;;20.08;100.00;97382.09;5046326;28;20051;-81
2023/05/29 06:38:51;;;;;;;7.70;4.70;;;;;;;19.76;100.00;97374.50;5055024;28;20047;-81
2023/05/29 06:41:17;;;;;;;4.57;3.53;;;;;;;19.71;100.00;97379.56;5054721;28;20097;-82
2023/05/29 06:43:42;;;;;;;7.88;4.45;;;;;;;19.95;100.00;97377.06;5071543;28;20446;-81
2023/05/29 06:46:08;;;;;;;12.73;7.97;;;;;;;19.96;100.00;97358.91;5056258;28;20025;-82
2023/05/29 06:48:37;;;;;;;29.88;15.88;;;;;;;19.97;100.00;97366.88;5058545;28;20089;-80
2023/05/29 06:51:08;;;;;;;9.13;5.15;;;;;;;20.27;100.00;97360.16;5062531;28;20035;-81
2023/05/29 06:53:40;;;;;;;23.30;15.18;;;;;;;20.66;100.00;97365.16;5053717;28;20043;-80
2023/05/29 06:56:07;;;;;;;4.70;3.40;;;;;;;20.87;100.00;97363.75;5055824;28;20543;-81
2023/05/29 06:58:33;;;;;;;30.05;18.88;;;;;;;21.47;100.00;97355.47;5051505;28;20029;-82
2023/05/29 07:00:58;;;;;;;5.97;2.67;;;;;;;20.84;100.00;97345.03;5042642;28;20032;-80
2023/05/29 07:03:27;;;;;;;6.07;3.67;;;;;;;21.83;100.00;97342.38;5048355;28;20472;-80
2023/05/29 07:05:53;;;;;;;3.00;2.60;;;;;;;23.04;100.00;97340.28;5065663;28;20032;-81
2023/05/29 07:08:19;;;;;;;4.55;3.08;;;;;;;24.18;100.00;97330.34;5059625;28;20170;-79
2023/05/29 07:10:44;;;;;;;4.65;2.38;;;;;;;24.91;100.00;97321.38;5072934;28;20400;-82
2023/05/29 07:13:10;;;;;;;4.03;3.30;;;;;;;25.14;100.00;97324.84;5045898;28;20071;-82
2023/05/29 07:15:38;;;;;;;2.20;2.00;;;;;;;24.35;100.00;97328.31;5053762;28;20124;-80
2023/05/29 07:18:03;;;;;;;4.88;2.13;;;;;;;22.95;100.00;97346.00;5056808;28;20025;-80
2023/05/29 07:20:29;;;;;;;6.07;2.80;;;;;;;22.49;100.00;97350.34;5056798;28;20108;-79
2023/05/29 07:22:54;;;;;;;3.95;2.40;;;;;;;22.40;100.00;97346.78;5071655;28;20028;-79
2023/05/29 07:25:20;;;;;;;3.00;2.33;;;;;;;22.01;100.00;97345.81;5051452;28;20051;-80
2023/05/29 07:27:45;;;;;;;4.95;3.75;;;;;;;22.86;100.00;97353.34;5040224;28;20086;-79
2023/05/29 07:30:11;;;;;;;2.72;2.22;;;;;;;25.54;100.00;97328.06;5053543;28;20128;-80
2023/05/29 07:32:37;;;;;;;6.25;2.10;;;;;;;26.56;98.37;97319.34;5070672;28;20043;-78
2023/05/29 07:35:03;;;;;;;9.15;2.85;;;;;;;26.13;98.37;97317.69;5064823;28;20021;-80
2023/05/29 07:37:30;;;;;;;4.97;3.00;;;;;;;24.96;100.00;97335.34;5061942;28;20035;-79
2023/05/29 07:39:55;;;;;;;5.72;2.53;;;;;;;23.95;100.00;97334.97;5056381;28;20519;-79
2023/05/29 07:42:21;;;;;;;4.22;2.53;;;;;;;23.15;100.00;97347.25;5064779;28;20020;-79
2023/05/29 07:44:47;;;;;;;4.55;2.40;;;;;;;22.30;100.00;97356.19;5045125;28;20028;-79
2023/05/29 07:47:13;;;;;;;4.00;2.75;;;;;;;22.69;100.00;97362.59;5047938;28;20030;-80
2023/05/29 07:49:39;;;;;;;22.52;15.35;;;;;;;22.76;100.00;97355.44;5070089;28;20107;-78
2023/05/29 07:52:05;;;;;;;11.60;7.28;;;;;;;22.42;100.00;97354.81;5066861;28;20016;-79
2023/05/29 07:54:32;;;;;;;35.55;23.88;;;;;;;22.59;100.00;97353.72;5061460;28;20487;-79
2023/05/29 07:56:59;;;;;;;12.02;4.65;;;;;;;22.96;100.00;97356.72;5035290;28;20389;-79
2023/05/29 07:59:25;;;;;;;10.73;2.60;;;;;;;22.83;100.00;97359.13;5038591;28;20029;-79
2023/05/29 08:01:51;;;;;;;8.95;3.88;;;;;;;22.65;100.00;97362.09;5049764;28;20029;-80
2023/05/29 08:04:16;;;;;;;10.93;4.32;;;;;;;22.48;100.00;97360.41;5016910;28;20035;-79
2023/05/29 08:06:43;;;;;;;7.53;4.20;;;;;;;21.97;100.00;97367.09;5045582;28;20472;-79
2023/05/29 08:09:09;;;;;;;6.55;4.40;;;;;;;21.57;100.00;97354.28;5050131;28;20032;-80
2023/05/29 08:11:38;;;;;;;5.65;4.15;;;;;;;21.27;100.00;97363.06;5050074;28;20469;-80
2023/05/29 08:14:03;;;;;;;11.50;4.28;;;;;;;21.17;100.00;97375.09;5065178;28;20028;-79
2023/05/29 08:16:29;;;;;;;8.73;4.28;;;;;;;21.06;100.00;97368.91;5069696;28;20502;-79
2023/05/29 08:18:55;;;;;;;6.07;3.92;;;;;;;20.80;100.00;97381.72;5069560;28;20510;-79
2023/05/29 08:21:21;;;;;;;7.55;3.85;;;;;;;20.73;100.00;97380.69;5068713;28;20025;-79
2023/05/29 08:23:47;;;;;;;7.85;3.72;;;;;;;20.93;100.00;97384.84;5033045;28;20566;-80
2023/05/29 08:26:13;;;;;;;9.30;4.30;;;;;;;21.09;100.00;97384.09;5043434;28;20050;-79
2023/05/29 08:28:38;;;;;;;6.78;4.00;;;;;;;21.35;100.00;97386.75;5061384;28;20025;-79
2023/05/29 08:31:04;;;;;;;8.77;3.90;;;;;;;21.61;100.00;97387.47;5054573;28;20424;-80
2023/05/29 08:33:30;;;;;;;19.08;4.28;;;;;;;21.81;100.00;97382.56;5034492;28;20025;-79
2023/05/29 08:36:00;;;;;;;9.70;4.57;;;;;;;22.12;100.00;97370.84;5061541;28;20028;-79
2023/05/29 08:38:26;;;;;;;5.10;3.88;;;;;;;22.39;100.00;97371.50;5033899;28;20559;-79
2023/05/29 08:40:51;;;;;;;15.85;5.75;;;;;;;22.55;100.00;97374.19;5056646;28;20056;-79
2023/05/29 08:43:32;;;;;;;14.95;5.03;;;;;;;22.69;100.00;97373.53;5051886;28;20040;-80
2023/05/29 08:46:02;;;;;;;6.32;4.10;;;;;;;22.99;100.00;97364.53;5045818;28;20039;-79
2023/05/29 08:48:29;;;;;;;5.63;4.18;;;;;;;23.06;100.00;97360.09;5033807;28;20071;-79
2023/05/29 08:50:56;;;;;;;12.25;4.47;;;;;;;23.28;100.00;97353.00;5052700;28;20020;-79
2023/05/29 08:53:23;;;;;;;9.27;4.10;;;;;;;23.34;100.00;97346.81;5063513;28;20519;-80
2023/05/29 08:55:52;;;;;;;6.53;3.40;;;;;;;23.46;100.00;97339.09;5038496;28;20029;-79
2023/05/29 08:58:20;;;;;;;8.27;4.05;;;;;;;23.90;100.00;97352.94;5031392;28;20128;-79
2023/05/29 09:00:46;;;;;;;8.15;4.50;;;;;;;24.41;100.00;97348.59;5056253;28;20025;-79
2023/05/29 09:03:12;;;;;;;10.90;6.60;;;;;;;25.31;100.00;97334.53;5072853;28;20020;-80
2023/05/29 09:05:41;;;;;;;27.48;17.25;;;;;;;26.18;100.00;97327.06;5037743;28;20025;-80
2023/05/29 09:08:15;;;;;;;14.25;7.80;;;;;;;26.49;100.00;97332.16;5036250;28;20024;-79
2023/05/29 09:10:44;;;;;;;6.90;4.00;;;;;;;25.98;99.47;97317.78;5054088;28;20086;-80
2023/05/29 09:13:11;;;;;;;9.38;4.60;;;;;;;26.49;98.50;97315.69;5049796;28;20021;-79
2023/05/29 09:15:39;;;;;;;6.57;3.85;;;;;;;26.95;93.42;97313.25;5054875;28;20396;-80
2023/05/29 09:18:05;;;;;;;5.00;4.00;;;;;;;26.80;89.28;97301.56;5051610;28;20094;-80
2023/05/29 09:20:31;;;;;;;6.78;3.97;;;;;;;27.16;87.80;97290.34;5036755;28;20057;-80
2023/05/29 09:22:57;;;;;;;7.03;4.15;;;;;;;28.45;83.11;97290.81;5073232;28;20052;-80
2023/05/29 09:25:27;;;;;;;10.85;4.85;;;;;;;29.05;77.47;97288.78;5073777;28;20095;-81
2023/05/29 09:27:57;;;;;;;39.65;11.63;;;;;;;29.38;74.23;97277.66;5072361;28;20031;-79
2023/05/29 09:30:35;;;;;;;17.10;8.75;;;;;;;29.35;74.87;97269.81;5050147;28;20080;-79
2023/05/29 09:33:01;;;;;;;10.23;6.60;;;;;;;29.16;71.15;97260.56;5072196;28;20119;-79
2023/05/29 09:35:33;;;;;;;7.00;4.93;;;;;;;28.25;78.08;97245.94;5073327;28;20032;-78
2023/05/29 09:37:58;;;;;;;;;;;;;;;27.34;86.24;97268.66;5072841;28;20024;-80
2023/05/29 09:40:24;;;;;;;7.10;4.88;;;;;;;27.08;87.59;97272.13;5055092;28;20383;-79
2023/05/29 09:42:49;;;;;;;7.25;4.55;;;;;;;27.77;81.34;97253.53;5036463;28;20028;-80
2023/05/29 09:45:18;;;;;;;7.15;4.53;;;;;;;28.44;77.27;97252.50;5049078;28;20055;-80
2023/05/29 09:47:44;;;;;;;5.35;4.10;;;;;;;30.43;67.34;97263.16;5053445;28;20025;-79
2023/05/29 09:50:22;;;;;;;9.40;4.15;;;;;;;31.52;56.91;97241.09;5052235;28;20378;-79
2023/05/29 09:52:52;;;;;;;15.00;11.45;;;;;;;30.77;61.94;97245.16;5048470;28;20032;-78
2023/05/29 09:55:21;;;;;;;20.30;14.18;;;;;;;29.60;70.73;97234.88;5066139;28;20112;-79
2023/05/29 09:57:48;;;;;;;17.52;8.73;;;;;;;28.12;79.26;97234.13;5039518;28;20033;-79
2023/05/29 10:00:16;;;;;;;12.90;5.07;;;;;;;28.28;80.78;97251.03;5055712;28;20498;-81
2023/05/29 10:02:41;;;;;;;7.40;5.90;;;;;;;28.93;71.65;97240.94;5055137;28;20112;-77
2023/05/29 10:05:08;;;;;;;9.90;4.85;;;;;;;28.88;73.44;97238.00;5055253;28;20565;-79
2023/05/29 10:07:36;;;;;;;10.35;5.20;;;;;;;28.95;66.75;97219.53;5059915;28;20405;-80
2023/05/29 10:10:07;;;;;;;17.30;10.82;;;;;;;30.07;66.09;97236.28;5051755;28;20453;-80
2023/05/29 10:12:37;;;;;;;14.70;9.07;;;;;;;29.57;65.94;97214.13;5066108;28;20032;-79
2023/05/29 10:15:02;;;;;;;9.65;7.00;;;;;;;28.28;68.85;97190.50;5057384;28;20029;-79
2023/05/29 10:17:33;;;;;;;10.18;6.93;;;;;;;27.55;78.75;97215.44;5058508;28;20483;-79
2023/05/29 10:20:01;;;;;;;8.20;5.00;;;;;;;26.83;83.02;97213.31;5066181;28;20103;-79
2023/05/29 10:22:27;;;;;;;10.07;5.40;;;;;;;26.82;84.56;97228.97;5034766;28;20118;-79
2023/05/29 10:24:53;;;;;;;7.40;5.30;;;;;;;26.15;88.72;97228.72;5052760;28;20020;-78
2023/05/29 10:27:19;;;;;;;8.15;5.45;;;;;;;26.27;89.65;97238.09;5048202;28;20054;-78
2023/05/29 10:29:54;;;;;;;7.18;5.18;;;;;;;26.54;86.10;97230.88;5054190;28;20035;-79
2023/05/29 10:32:29;;;;;;;9.77;5.80;;;;;;;26.51;81.75;97217.56;5055251;28;20047;-79
2023/05/29 10:35:11;;;;;;;9.15;5.80;;;;;;;26.29;81.93;97219.56;5071252;28;20043;-79
2023/05/29 10:37:57;;;;;;;7.55;5.10;;;;;;;25.38;87.16;97224.22;5054462;28;20033;-79
2023/05/29 10:40:25;;;;;;;10.98;5.60;;;;;;;25.14;91.33;97230.88;5054636;28;20032;-79
2023/05/29 10:42:58;;;;;;;7.40;5.20;;;;;;;24.81;94.81;97233.25;5054639;28;20020;-79
2023/05/29 10:45:32;;;;;;;12.15;5.35;;;;;;;24.51;100.00;97264.38;5047062;28;20099;-78
2023/05/29 10:48:06;;;;;;;12.27;5.65;;;;;;;23.83;100.00;97281.78;5054303;28;20386;-75
2023/05/29 10:50:41;;;;;;;8.55;5.50;;;;;;;23.03;100.00;97299.56;5051087;28;20045;-78
2023/05/29 10:53:07;;;;;;;14.38;6.32;;;;;;;22.51;100.00;97310.13;5045220;28;20025;-78
2023/05/29 10:55:39;;;;;;;18.83;7.40;;;;;;;21.97;100.00;97309.03;5062983;28;20029;-79
2023/05/29 10:58:12;;;;;;;13.43;7.70;;;;;;;21.44;100.00;97315.78;5055978;28;20031;-78
2023/05/29 11:00:41;;;;;;;10.35;6.55;;;;;;;21.43;100.00;97321.44;5045765;28;20041;-79
2023/05/29 11:03:10;;;;;;;14.93;9.25;;;;;;;21.53;100.00;97330.28;5063027;28;20411;-78
2023/05/29 11:05:56;;;;;;;13.10;6.25;;;;;;;21.66;100.00;97344.25;5054544;28;20044;-80
2023/05/29 11:08:30;;;;;;;7.90;5.18;;;;;;;21.82;100.00;97346.13;5045450;28;20105;-79
2023/05/29 11:10:56;;;;;;;9.40;5.93;;;;;;;22.10;100.00;97344.78;5054701;28;20086;-80
2023/05/29 11:13:26;;;;;;;9.93;5.63;;;;;;;22.14;100.00;97336.13;5054683;28;20037;-80
2023/05/29 11:16:24;;;;;;;8.95;5.03;;;;;;;22.23;100.00;97338.81;5062714;28;20028;-80
2023/05/29 11:18:51;;;;;;;8.65;5.68;;;;;;;22.50;100.00;97343.88;5029032;28;20041;-79